EDLP/PAD METAR and TAF weather

Enter ICAO airport designator
Station Type Date Time Source
EDLP METAR 2018/12/11 13:50 UTC NOAA

EDLP 111350Z 27006KT 220V310 9999 -RA BKN010 OVC013 04/02 Q1021


Station Type Date Time Source
EDLP Decoded METAR 2018/12/11 13:50 UTC NOAA

Paderborn / Lippstadt, Germany (EDLP) 51-37N 008-37E
Dec 11, 2018 - 08:50 AM EST / 2018.12.11 1350 UTC
Wind: from the W (270 degrees) at 7 MPH (6 KT) (direction variable):0
Visibility: greater than 7 mile(s):0
Sky conditions: overcast
Weather: light rain
Temperature: 39 F (4 C)
Dew Point: 35 F (2 C)
Relative Humidity: 86%
Pressure (altimeter): 30.15 in. Hg (1021 hPa)
ob: EDLP 111350Z 27006KT 220V310 9999 -RA BKN010 OVC013 04/02 Q1021
cycle: 14

Station Type Date Time Source
EDLP TAF 2018/12/11 12:33 UTC NOAA

TAF EDLP 111100Z 1112/1212 27008KT 9999 BKN007
TEMPO 1112/1118 SCT008 BKN015
BECMG 1115/1118 29003KT
BECMG 1200/1203 3000 BR
TEMPO 1202/1209 1200 BR OVC003
BECMG 1210/1212 6000 BKN015


Example: see airport list